Aeroporto :
LOGIN :

Iscrizione | Disclaimer

   EN    FR    IT 

 










Sommario :    VFR   VFR Marginale   IFR   IFR Intensivo   IFR Molto Intensivo
Visibilità : 
Base nubi : 
>= 8 km
>= 3000ft
5 / 8 km
1000 / 3000 ft
1500m / 5 km
500 / 1000 ft
800 / 1500m
200 / 500 ft
< 800m
< 200 ft
Simboli :   Temporali  Nebbia  Neve Forte  Precipitazioni Forti  Vento > 20 kt
SIGMETs :   Varie  Temporali  Ghiacco  Turbolenza  Onda orograficha  Ceneri Vulcaniche






- Altitudine del aeroporto : 362 ft
- Codice IATA : WAW


EPWA - Warsaw Okecie

ULTIMO METAR :
  • 251000Z 27008KT 230V290 2100 -DZ BR OVC003 01/00 Q1019 NOSIG

METARs OBSOLETI :
  • 250930Z 27007KT 240V300 1800 -DZ BR OVC003 01/00 Q1019 NOSIG
  • 250900Z 26006KT 230V290 1500 R33/1700N -DZ BR OVC003 01/00 Q1019 NOSIG
  • 250830Z 25006KT 220V280 1400 R33/1600N -DZ BR OVC003 00/00 Q1019 TEMPO 1500 BR
  • 250800Z 25006KT 220V280 1300 1200W R33/1700D -DZ BR OVC003 00/M00 Q1019 TEMPO 1500 BR
  • 250730Z 25005KT 200V290 1700 -DZ BR OVC004 00/M00 Q1018 TEMPO 1500 BR

TAF TAF EPWA
Valido dal 25 a 09 ore il 26 a 09 ore UTC


250830Z 2509/2609 26007KT 3000 -DZ BR OVC006
TEMPO 2509/2512 1400 -DZ BR OVC003
TEMPO 2512/2609 2000 -SG -DZ BR OVC004
PROB40 2518/2606 1200 -SG -DZ BR OVC001
BECMG 2606/2609 20010KT 5000 BR BKN010



MetMap, La meteo Aeronautica in un colpo d'occhio ! - Copyright ORBIFLY Dicembre 2007 - Disclaimer

ORBIFLY MET'MAP TEAM :

Programmazione e sviluppo : Alexandra Zaïnal
Concezione : Baudouin d'Aumeries
Aiuto per la programmazione : Marc-Olivier Méhu
Supporto tecnico e logistico : Manuel Goepfert
Aiuto per la traduzione : Arnaldo La Scala

Contatto : metmap@orbifly.com




FONTI E CREDITI :

   NOAA